Time;durP1;ratioP1;P1;durP2;ratioP2;P2;SDS_P1;SDS_P2;PMS_P1;PMS_P2;Temp;Humidity;BMP_temperature;BMP_pressure;BME280_temperature;BME280_humidity;BME280_pressure;Samples;Min_cycle;Max_cycle;Signal;HPM_P1;HPM_P2
2023/03/28 00:00:16;;;;;;;0.50;0.40;;;1.60;99.90;;;;;;5086673;28;20699;-80
2023/03/28 00:02:43;;;;;;;0.50;0.40;;;1.60;99.90;;;;;;5095580;28;20194;-80
2023/03/28 00:05:11;;;;;;;0.50;0.50;;;1.50;99.90;;;;;;5095556;28;20264;-80
2023/03/28 00:07:38;;;;;;;0.50;0.50;;;1.50;99.90;;;;;;5095337;28;20209;-80
2023/03/28 00:10:06;;;;;;;0.50;0.50;;;1.40;99.90;;;;;;5088434;28;20195;-80
2023/03/28 00:12:33;;;;;;;0.50;0.40;;;1.40;99.90;;;;;;5083521;28;20205;-81
2023/03/28 00:15:03;;;;;;;0.50;0.50;;;1.30;99.90;;;;;;5083487;28;20622;-80
2023/03/28 00:17:30;;;;;;;2.15;2.05;;;1.30;99.90;;;;;;5085530;28;20254;-81
2023/03/28 00:19:57;;;;;;;0.80;0.80;;;1.30;99.90;;;;;;5095691;28;20223;-80
2023/03/28 00:22:24;;;;;;;1.02;1.02;;;1.30;99.90;;;;;;5093575;28;20198;-81
2023/03/28 00:24:52;;;;;;;0.50;0.50;;;1.40;99.90;;;;;;5088999;28;20187;-81
2023/03/28 00:27:19;;;;;;;0.50;0.50;;;1.40;99.90;;;;;;5086262;28;20265;-79
2023/03/28 00:29:46;;;;;;;2.55;2.45;;;1.40;99.90;;;;;;5095285;28;20193;-80
2023/03/28 00:32:14;;;;;;;1.77;1.67;;;1.30;99.90;;;;;;5086438;28;20201;-79
2023/03/28 00:34:41;;;;;;;0.50;0.50;;;1.30;99.90;;;;;;5089087;28;20300;-81
2023/03/28 00:37:09;;;;;;;0.70;0.70;;;1.30;99.90;;;;;;5098473;28;20274;-80
2023/03/28 00:39:36;;;;;;;0.60;0.60;;;1.20;99.90;;;;;;5091028;28;20189;-80
2023/03/28 00:42:03;;;;;;;0.50;0.50;;;1.20;99.90;;;;;;5091998;28;20289;-80
2023/03/28 00:44:51;;;;;;;0.50;0.50;;;1.20;99.90;;;;;;5098143;28;20574;-80
2023/03/28 00:47:36;;;;;;;0.50;0.50;;;1.20;99.90;;;;;;5090221;28;20254;-80
2023/03/28 00:50:09;;;;;;;0.50;0.50;;;1.20;99.90;;;;;;5091524;28;20219;-80
2023/03/28 00:52:39;;;;;;;0.50;0.40;;;1.10;99.90;;;;;;5094899;28;20214;-82
2023/03/28 00:55:11;;;;;;;0.68;0.60;;;1.10;99.90;;;;;;5079146;28;20202;-80
2023/03/28 00:57:39;;;;;;;0.50;0.50;;;1.00;99.90;;;;;;5095673;28;20279;-80
2023/03/28 01:00:11;;;;;;;0.50;0.50;;;1.00;99.90;;;;;;5094304;28;20645;-81
2023/03/28 01:02:41;;;;;;;0.50;0.50;;;1.00;99.90;;;;;;5090158;28;20221;-80
2023/03/28 01:05:09;;;;;;;0.50;0.50;;;1.00;99.90;;;;;;5090827;28;20197;-80
2023/03/28 01:07:44;;;;;;;0.50;0.40;;;1.00;99.90;;;;;;5098607;28;20553;-79
2023/03/28 01:10:12;;;;;;;0.50;0.50;;;1.10;99.90;;;;;;5091096;28;20288;-79
2023/03/28 01:12:40;;;;;;;0.52;0.52;;;1.10;99.90;;;;;;5081681;28;20553;-80
2023/03/28 01:15:08;;;;;;;0.60;0.60;;;1.20;99.90;;;;;;5098560;28;20304;-80
2023/03/28 01:17:36;;;;;;;1.33;1.20;;;1.20;99.90;;;;;;5098291;28;20220;-80
2023/03/28 01:20:17;;;;;;;0.50;0.50;;;1.10;99.90;;;;;;5098204;28;20197;-81
2023/03/28 01:23:15;;;;;;;1.33;1.23;;;1.20;99.90;;;;;;5099056;28;20298;-80
2023/03/28 01:26:23;;;;;;;0.50;0.50;;;1.20;99.90;;;;;;5098361;28;20186;-82
2023/03/28 01:29:26;;;;;;;1.17;0.70;;;1.10;99.90;;;;;;5078046;28;20209;-81
2023/03/28 01:32:21;;;;;;;0.50;0.40;;;1.10;99.90;;;;;;5086115;28;20285;-80
2023/03/28 01:35:19;;;;;;;0.50;0.50;;;1.10;99.90;;;;;;5083135;28;20189;-81
2023/03/28 01:37:51;;;;;;;0.70;0.70;;;1.00;99.90;;;;;;5098177;28;20231;-82
2023/03/28 01:40:33;;;;;;;0.50;0.50;;;1.10;99.90;;;;;;5098721;28;20196;-80
2023/03/28 01:43:12;;;;;;;0.50;0.40;;;1.10;99.90;;;;;;5098321;28;20202;-79
2023/03/28 01:45:49;;;;;;;2.67;1.60;;;1.00;99.90;;;;;;5097398;28;20185;-80
2023/03/28 01:48:25;;;;;;;1.38;1.30;;;1.00;99.90;;;;;;5097493;28;20729;-80
2023/03/28 01:50:58;;;;;;;0.50;0.40;;;1.00;99.90;;;;;;5088967;28;20620;-81
2023/03/28 01:53:32;;;;;;;0.50;0.50;;;1.00;99.90;;;;;;5081133;28;20200;-80
2023/03/28 01:56:04;;;;;;;3.35;1.05;;;1.00;99.90;;;;;;5097627;28;20215;-81
2023/03/28 01:58:36;;;;;;;0.50;0.50;;;1.00;99.90;;;;;;5097069;28;20239;-81
2023/03/28 02:01:12;;;;;;;0.50;0.50;;;1.00;99.90;;;;;;5097854;28;20193;-81
2023/03/28 02:03:45;;;;;;;0.50;0.50;;;1.00;99.90;;;;;;5088644;28;20280;-80
2023/03/28 02:06:14;;;;;;;0.50;0.50;;;1.00;99.90;;;;;;5097736;28;20198;-80
2023/03/28 02:08:45;;;;;;;0.57;0.55;;;1.00;99.90;;;;;;5089387;28;20595;-80
2023/03/28 02:11:12;;;;;;;0.50;0.40;;;1.00;99.90;;;;;;5089230;28;20212;-80
2023/03/28 02:13:44;;;;;;;0.50;0.50;;;0.90;99.90;;;;;;5089329;28;20207;-80
2023/03/28 02:16:13;;;;;;;8.98;1.05;;;0.80;99.90;;;;;;5089857;28;20217;-81
2023/03/28 02:18:45;;;;;;;0.50;0.40;;;0.80;99.90;;;;;;5085708;28;20206;-80
2023/03/28 02:21:17;;;;;;;0.50;0.50;;;0.80;99.90;;;;;;5093747;28;20641;-79
2023/03/28 02:23:50;;;;;;;0.60;0.60;;;0.80;99.90;;;;;;5090330;28;20190;-81
2023/03/28 02:26:17;;;;;;;0.50;0.40;;;0.80;99.90;;;;;;5097073;28;20544;-80
2023/03/28 02:28:47;;;;;;;51.85;8.20;;;0.80;99.90;;;;;;5092520;28;20707;-80
2023/03/28 02:31:14;;;;;;;0.50;0.50;;;0.80;99.90;;;;;;5094072;28;20197;-79
2023/03/28 02:33:43;;;;;;;2.95;2.75;;;0.80;99.90;;;;;;5097061;28;20189;-80
2023/03/28 02:36:29;;;;;;;1.85;0.65;;;0.80;99.90;;;;;;5096434;28;20213;-80
2023/03/28 02:39:15;;;;;;;0.50;0.50;;;0.80;99.90;;;;;;5082662;28;20223;-81
2023/03/28 02:41:56;;;;;;;0.50;0.50;;;0.80;99.90;;;;;;5097207;28;20193;-80
2023/03/28 02:44:41;;;;;;;0.50;0.50;;;0.70;99.90;;;;;;5088262;28;20196;-79
2023/03/28 02:47:16;;;;;;;0.50;0.40;;;0.70;99.90;;;;;;5097203;28;20196;-78
2023/03/28 02:49:52;;;;;;;0.60;0.50;;;0.70;99.90;;;;;;5088912;28;20193;-80
2023/03/28 02:52:35;;;;;;;0.50;0.40;;;0.70;99.90;;;;;;5096289;28;20282;-79
2023/03/28 02:55:12;;;;;;;0.55;0.52;;;0.70;99.90;;;;;;5087810;28;20700;-80
2023/03/28 02:57:45;;;;;;;0.73;0.73;;;0.60;99.90;;;;;;5087454;28;20213;-80
2023/03/28 03:00:16;;;;;;;0.80;0.80;;;0.60;99.90;;;;;;5097163;28;20195;-81
2023/03/28 03:02:46;;;;;;;0.50;0.40;;;0.60;99.90;;;;;;5096498;28;20211;-80
2023/03/28 03:05:13;;;;;;;0.50;0.50;;;0.60;99.90;;;;;;5096414;28;20193;-81
2023/03/28 03:07:41;;;;;;;1.60;1.50;;;0.60;99.90;;;;;;5089195;28;20232;-79
2023/03/28 03:10:13;;;;;;;0.50;0.50;;;0.50;99.90;;;;;;5096734;28;20197;-80
2023/03/28 03:12:40;;;;;;;1.52;1.42;;;0.60;99.90;;;;;;5096205;28;20201;-80
2023/03/28 03:15:09;;;;;;;0.50;0.50;;;0.60;99.90;;;;;;5096356;28;20197;-80
2023/03/28 03:17:36;;;;;;;0.75;0.60;;;0.50;99.90;;;;;;5096340;28;20217;-80
2023/03/28 03:20:05;;;;;;;0.50;0.50;;;0.60;99.90;;;;;;5089383;28;20217;-80
2023/03/28 03:22:33;;;;;;;1.10;1.10;;;0.60;99.90;;;;;;5095386;28;20197;-79
2023/03/28 03:25:03;;;;;;;0.50;0.50;;;0.60;99.90;;;;;;5087971;28;20194;-80
2023/03/28 03:27:31;;;;;;;18.25;3.95;;;0.60;99.90;;;;;;5088232;28;20539;-80
2023/03/28 03:29:58;;;;;;;0.82;0.80;;;0.60;99.90;;;;;;5097985;28;20208;-81
2023/03/28 03:32:25;;;;;;;0.80;0.77;;;0.60;99.90;;;;;;5088531;28;20194;-80
2023/03/28 03:34:52;;;;;;;1.30;1.10;;;0.60;99.90;;;;;;5096769;28;20202;-80
2023/03/28 03:37:19;;;;;;;1.13;1.05;;;0.60;99.90;;;;;;5088164;28;20308;-80
2023/03/28 03:39:47;;;;;;;1.67;1.58;;;0.60;99.90;;;;;;5097456;28;20215;-80
2023/03/28 03:42:14;;;;;;;0.50;0.50;;;0.60;99.90;;;;;;5095362;28;20193;-79
2023/03/28 03:44:42;;;;;;;0.88;0.60;;;0.70;99.90;;;;;;5092318;28;20194;-80
2023/03/28 03:47:09;;;;;;;13.40;1.77;;;0.70;99.90;;;;;;5091482;28;20264;-77
2023/03/28 03:49:36;;;;;;;2.50;2.40;;;0.70;99.90;;;;;;5093269;28;20193;-79
2023/03/28 03:52:03;;;;;;;0.50;0.50;;;0.70;99.90;;;;;;5091065;28;20193;-80
2023/03/28 03:54:30;;;;;;;0.60;0.60;;;0.70;99.90;;;;;;5087708;28;20289;-81
2023/03/28 03:56:57;;;;;;;4.30;1.33;;;0.70;99.90;;;;;;5095256;28;20213;-79
2023/03/28 03:59:24;;;;;;;2.90;2.70;;;0.60;99.90;;;;;;5095731;28;20209;-80
2023/03/28 04:01:52;;;;;;;0.70;0.70;;;0.60;99.90;;;;;;5095487;28;20189;-80
2023/03/28 04:04:19;;;;;;;0.98;0.77;;;0.60;99.90;;;;;;5095472;28;20197;-79
2023/03/28 04:06:46;;;;;;;1.52;1.45;;;0.60;99.90;;;;;;5095514;28;20191;-79
2023/03/28 04:09:13;;;;;;;0.52;0.52;;;0.60;99.90;;;;;;5095283;28;20751;-78
2023/03/28 04:11:40;;;;;;;1.85;1.30;;;0.60;99.90;;;;;;5087627;28;20193;-81
2023/03/28 04:14:07;;;;;;;0.50;0.50;;;0.50;99.90;;;;;;5095158;28;20201;-80
2023/03/28 04:16:34;;;;;;;0.80;0.80;;;0.50;99.90;;;;;;5095079;28;20213;-81
2023/03/28 04:19:02;;;;;;;0.50;0.47;;;0.50;99.90;;;;;;5094916;28;20219;-80
2023/03/28 04:21:34;;;;;;;1.48;0.80;;;0.50;99.90;;;;;;5094667;28;20250;-78
2023/03/28 04:24:01;;;;;;;0.63;0.63;;;0.50;99.90;;;;;;5094970;28;20632;-80
2023/03/28 04:26:28;;;;;;;1.27;1.20;;;0.40;99.90;;;;;;5094743;28;20684;-80
2023/03/28 04:28:56;;;;;;;1.30;1.20;;;0.50;99.90;;;;;;5094856;28;20307;-80
2023/03/28 04:31:27;;;;;;;0.60;0.60;;;0.50;99.90;;;;;;5094669;28;20201;-81
2023/03/28 04:33:54;;;;;;;0.52;0.52;;;0.40;99.90;;;;;;5095302;28;20209;-79
2023/03/28 04:36:24;;;;;;;0.60;0.60;;;0.40;99.90;;;;;;5094660;28;20215;-80
2023/03/28 04:38:51;;;;;;;3.95;1.35;;;0.40;99.90;;;;;;5094557;28;20614;-79
2023/03/28 04:41:18;;;;;;;0.88;0.88;;;0.40;99.90;;;;;;5096080;28;20193;-80
2023/03/28 04:43:45;;;;;;;1.67;0.63;;;0.40;99.90;;;;;;5095545;28;20193;-81
2023/03/28 04:46:12;;;;;;;2.63;2.42;;;0.40;99.90;;;;;;5095610;28;20196;-81
2023/03/28 04:48:39;;;;;;;0.75;0.75;;;0.40;99.90;;;;;;5094605;28;20244;-80
2023/03/28 04:51:06;;;;;;;12.85;2.22;;;0.40;99.90;;;;;;5095276;28;20276;-80
2023/03/28 04:53:35;;;;;;;6.28;2.22;;;0.40;99.90;;;;;;5097805;28;20200;-80
2023/03/28 04:56:02;;;;;;;2.25;2.05;;;0.40;99.90;;;;;;5098134;28;20210;-80
2023/03/28 04:58:29;;;;;;;4.30;1.00;;;0.40;99.90;;;;;;5097392;28;20300;-80
2023/03/28 05:00:55;;;;;;;1.05;1.05;;;0.40;99.90;;;;;;5094502;28;20619;-78
2023/03/28 05:03:24;;;;;;;1.67;1.58;;;0.40;99.90;;;;;;5094115;28;20251;-79
2023/03/28 05:05:52;;;;;;;2.55;2.10;;;0.40;99.90;;;;;;5094358;28;20193;-80
2023/03/28 05:08:21;;;;;;;0.65;0.65;;;0.40;99.90;;;;;;5094186;28;20217;-79
2023/03/28 05:10:50;;;;;;;2.25;2.15;;;0.40;99.90;;;;;;5085739;28;20216;-80
2023/03/28 05:13:17;;;;;;;4.05;1.10;;;0.40;99.90;;;;;;5093889;28;20197;-80
2023/03/28 05:15:46;;;;;;;1.40;1.30;;;0.40;99.90;;;;;;5085929;28;20193;-82
2023/03/28 05:18:13;;;;;;;1.33;1.33;;;0.40;99.90;;;;;;5093498;28;20210;-78
2023/03/28 05:20:40;;;;;;;1.10;1.00;;;0.40;99.90;;;;;;5083948;28;20190;-81
2023/03/28 05:23:07;;;;;;;3.55;3.38;;;0.40;99.90;;;;;;5092634;28;20221;-81
2023/03/28 05:25:34;;;;;;;3.28;2.63;;;0.40;99.90;;;;;;5097094;28;20276;-81
2023/03/28 05:28:03;;;;;;;1.42;0.82;;;0.40;99.90;;;;;;5097726;28;20212;-80
2023/03/28 05:30:30;;;;;;;0.50;0.50;;;0.40;99.90;;;;;;5098185;28;20192;-80
2023/03/28 05:32:57;;;;;;;1.40;1.30;;;0.40;99.90;;;;;;5097594;28;20193;-81
2023/03/28 05:35:24;;;;;;;6.82;1.23;;;0.30;99.90;;;;;;5094607;28;20197;-78
2023/03/28 05:37:51;;;;;;;7.20;1.65;;;0.30;99.90;;;;;;5084005;28;20660;-79
2023/03/28 05:40:18;;;;;;;0.85;0.85;;;0.40;99.90;;;;;;5083884;28;20198;-78
2023/03/28 05:42:45;;;;;;;1.40;0.70;;;0.40;99.90;;;;;;5083195;28;20204;-78
2023/03/28 05:45:13;;;;;;;3.40;3.22;;;0.50;99.90;;;;;;5091447;28;20648;-81
2023/03/28 05:47:40;;;;;;;0.60;0.60;;;0.50;99.90;;;;;;5095777;28;20626;-80
2023/03/28 05:50:09;;;;;;;0.50;0.45;;;0.50;99.90;;;;;;5096550;28;20189;-80
2023/03/28 05:52:36;;;;;;;0.60;0.60;;;0.60;99.90;;;;;;5094255;28;20193;-81
2023/03/28 05:55:03;;;;;;;0.65;0.65;;;0.70;99.90;;;;;;5084871;28;20208;-79
2023/03/28 05:57:30;;;;;;;4.82;1.75;;;0.80;99.90;;;;;;5086520;28;20271;-82
2023/03/28 05:59:57;;;;;;;0.50;0.40;;;0.90;99.90;;;;;;5097498;28;20280;-80
2023/03/28 06:02:28;;;;;;;1.50;1.40;;;1.20;99.90;;;;;;5096352;28;20224;-78
2023/03/28 06:04:55;;;;;;;2.58;1.55;;;1.70;99.90;;;;;;5098857;28;20329;-82
2023/03/28 06:07:22;;;;;;;2.33;2.17;;;2.10;99.90;;;;;;5098467;28;20280;-79
2023/03/28 06:09:49;;;;;;;1.88;1.35;;;2.30;99.90;;;;;;5088801;28;20186;-80
2023/03/28 06:12:15;;;;;;;1.02;1.02;;;2.40;99.90;;;;;;5087254;28;20246;-80
2023/03/28 06:14:42;;;;;;;0.50;0.50;;;2.60;99.90;;;;;;5081551;28;20193;-79
2023/03/28 06:17:09;;;;;;;0.70;0.70;;;2.80;99.90;;;;;;5090410;28;20714;-80
2023/03/28 06:19:38;;;;;;;1.40;1.35;;;3.10;99.90;;;;;;5090271;28;20289;-82
2023/03/28 06:22:04;;;;;;;1.25;1.15;;;3.10;99.90;;;;;;5096414;28;20629;-81
2023/03/28 06:24:31;;;;;;;0.95;0.90;;;3.10;99.90;;;;;;5089923;28;20253;-81
2023/03/28 06:26:58;;;;;;;1.13;0.70;;;3.20;99.90;;;;;;5095365;28;20288;-81
2023/03/28 06:29:25;;;;;;;0.85;0.80;;;3.60;99.90;;;;;;5090311;28;20297;-81
2023/03/28 06:31:52;;;;;;;1.02;1.02;;;4.00;99.90;;;;;;5095462;28;20200;-82
2023/03/28 06:34:20;;;;;;;1.73;1.63;;;4.30;99.90;;;;;;5090993;28;20675;-82
2023/03/28 06:36:48;;;;;;;1.33;1.23;;;4.70;99.90;;;;;;5095263;28;20201;-82
2023/03/28 06:39:15;;;;;;;1.55;1.45;;;5.10;99.90;;;;;;5091439;28;20293;-81
2023/03/28 06:41:43;;;;;;;1.63;1.52;;;5.60;99.90;;;;;;5103709;28;20253;-83
2023/03/28 06:44:10;;;;;;;4.30;2.60;;;6.20;99.90;;;;;;5096071;28;20193;-81
2023/03/28 06:46:37;;;;;;;3.22;2.95;;;6.60;99.90;;;;;;5102879;28;20200;-84
2023/03/28 06:49:05;;;;;;;0.50;0.50;;;7.00;99.90;;;;;;5096535;28;20240;-81
2023/03/28 06:51:32;;;;;;;1.60;1.25;;;7.20;99.90;;;;;;5105866;28;20189;-82
2023/03/28 06:54:01;;;;;;;0.70;0.70;;;7.20;99.90;;;;;;5105262;28;20199;-84
2023/03/28 06:56:27;;;;;;;1.27;1.27;;;7.70;99.90;;;;;;5101840;28;20264;-84
2023/03/28 06:58:54;;;;;;;0.95;0.95;;;8.10;99.90;;;;;;5092172;28;20299;-83
2023/03/28 07:01:21;;;;;;;0.55;0.55;;;8.30;99.90;;;;;;5091792;28;20561;-84
2023/03/28 07:03:48;;;;;;;2.03;1.92;;;8.60;99.90;;;;;;5101349;28;20319;-84
2023/03/28 07:06:15;;;;;;;1.20;1.13;;;8.90;99.90;;;;;;5101083;28;20276;-84
2023/03/28 07:08:42;;;;;;;2.55;1.48;;;9.00;99.90;;;;;;5092741;28;20213;-82
2023/03/28 07:11:10;;;;;;;0.95;0.95;;;8.90;99.90;;;;;;5101939;28;20672;-84
2023/03/28 07:13:36;;;;;;;3.72;1.88;;;9.10;99.90;;;;;;5101427;28;20299;-82
2023/03/28 07:16:06;;;;;;;1.50;1.40;;;9.10;99.90;;;;;;5101704;28;20233;-83
2023/03/28 07:18:34;;;;;;;2.88;0.98;;;8.90;99.90;;;;;;5091156;28;20268;-85
2023/03/28 07:21:06;;;;;;;2.85;2.15;;;8.60;99.90;;;;;;5094562;28;20246;-85
2023/03/28 07:23:33;;;;;;;2.75;1.35;;;8.30;99.90;;;;;;5100434;28;20201;-85
2023/03/28 07:26:00;;;;;;;2.55;1.50;;;8.70;99.90;;;;;;5100418;28;20262;-83
2023/03/28 07:28:28;;;;;;;1.40;1.20;;;8.90;99.90;;;;;;5083073;28;20345;-83
2023/03/28 07:30:55;;;;;;;0.50;0.40;;;9.20;99.90;;;;;;5099684;28;20229;-85
2023/03/28 07:33:22;;;;;;;0.73;0.73;;;9.50;99.90;;;;;;5092036;28;20194;-81
2023/03/28 07:35:49;;;;;;;2.42;2.20;;;9.80;99.90;;;;;;5088161;28;20218;-83
2023/03/28 07:38:16;;;;;;;3.45;1.92;;;10.20;99.90;;;;;;5095756;28;20217;-83
2023/03/28 07:40:43;;;;;;;1.13;1.02;;;10.30;99.90;;;;;;5099938;28;20197;-83
2023/03/28 07:43:10;;;;;;;0.50;0.40;;;10.80;99.90;;;;;;5090552;28;20214;-83
2023/03/28 07:45:38;;;;;;;1.27;0.70;;;12.00;99.90;;;;;;5099376;28;20605;-85
2023/03/28 07:48:06;;;;;;;3.00;2.53;;;12.60;91.50;;;;;;5099052;28;20973;-84
2023/03/28 07:50:34;;;;;;;0.50;0.40;;;13.00;90.30;;;;;;5090710;28;20808;-83
2023/03/28 07:53:02;;;;;;;1.07;0.60;;;13.60;88.70;;;;;;5099110;28;20458;-83
2023/03/28 07:55:29;;;;;;;0.90;0.90;;;14.30;82.60;;;;;;5099121;28;20515;-82
2023/03/28 07:57:56;;;;;;;2.50;0.97;;;15.40;78.80;;;;;;5090612;28;20558;-83
2023/03/28 08:00:23;;;;;;;2.80;2.70;;;15.20;72.90;;;;;;5098262;28;20526;-85
2023/03/28 08:02:51;;;;;;;0.70;0.50;;;14.70;73.70;;;;;;5090069;28;20947;-84
2023/03/28 08:05:19;;;;;;;0.90;0.90;;;14.50;74.50;;;;;;5098675;28;20930;-82
2023/03/28 08:07:45;;;;;;;0.77;0.77;;;14.60;75.30;;;;;;5095669;28;20451;-83
2023/03/28 08:10:13;;;;;;;1.63;1.20;;;15.10;73.20;;;;;;5093743;28;20439;-82
2023/03/28 08:12:40;;;;;;;0.60;0.60;;;15.40;72.80;;;;;;5098363;28;20924;-84
2023/03/28 08:15:08;;;;;;;0.60;0.50;;;14.80;71.00;;;;;;5098303;28;20435;-84
2023/03/28 08:17:35;;;;;;;2.40;1.17;;;14.60;72.80;;;;;;5096713;28;20497;-84
2023/03/28 08:20:08;;;;;;;3.33;2.17;;;14.20;72.40;;;;;;5090459;28;20518;-84
2023/03/28 08:22:35;;;;;;;2.97;1.57;;;14.20;73.80;;;;;;5089276;28;20476;-83
2023/03/28 08:25:01;;;;;;;1.03;0.93;;;14.00;72.20;;;;;;5097361;28;20954;-83
2023/03/28 08:27:28;;;;;;;0.50;0.40;;;14.30;73.90;;;;;;5097565;28;20462;-83
2023/03/28 08:29:56;;;;;;;2.53;1.93;;;14.60;71.70;;;;;;5098215;28;20877;-84
2023/03/28 08:32:23;;;;;;;2.63;2.23;;;14.30;71.80;;;;;;5096906;28;20473;-83
2023/03/28 08:34:50;;;;;;;1.13;1.00;;;13.80;72.00;;;;;;5094700;28;20504;-83
2023/03/28 08:37:20;;;;;;;0.50;0.40;;;13.00;74.70;;;;;;5093214;28;20554;-84
2023/03/28 08:39:47;;;;;;;3.17;1.33;;;13.20;76.10;;;;;;5097630;28;20926;-82
2023/03/28 08:42:37;;;;;;;1.60;1.37;;;14.20;75.90;;;;;;5097253;28;20471;-82
2023/03/28 08:45:23;;;;;;;0.53;0.43;;;14.30;74.20;;;;;;5085077;28;20606;-81
2023/03/28 08:48:01;;;;;;;0.70;0.70;;;13.90;73.90;;;;;;5096743;28;20439;-83
2023/03/28 08:50:31;;;;;;;1.33;1.20;;;14.10;74.60;;;;;;5088503;28;20440;-83
2023/03/28 08:53:00;;;;;;;0.77;0.60;;;14.30;73.10;;;;;;5096963;28;20470;-84
2023/03/28 08:55:34;;;;;;;0.50;0.40;;;15.30;72.60;;;;;;5098995;28;20448;-83
2023/03/28 08:58:03;;;;;;;2.70;1.13;;;14.70;70.90;;;;;;5102584;28;20843;-85
2023/03/28 09:00:31;;;;;;;1.40;1.30;;;14.90;72.40;;;;;;5101616;28;20435;-84
2023/03/28 09:02:59;;;;;;;0.50;0.40;;;14.70;69.70;;;;;;5092791;28;20529;-83
2023/03/28 09:05:38;;;;;;;0.50;0.40;;;15.70;71.80;;;;;;5101012;28;20885;-81
2023/03/28 09:08:23;;;;;;;5.90;1.70;;;16.70;67.10;;;;;;5093883;28;20450;-85
2023/03/28 09:10:55;;;;;;;1.00;0.87;;;16.50;64.80;;;;;;5096742;28;20435;-83
2023/03/28 09:13:33;;;;;;;1.27;1.17;;;15.10;64.90;;;;;;5100765;28;20451;-84
2023/03/28 09:16:11;;;;;;;0.50;0.50;;;14.00;66.80;;;;;;5084720;28;20822;-84
2023/03/28 09:18:55;;;;;;;1.17;1.07;;;13.20;69.20;;;;;;5100015;28;20553;-84
2023/03/28 09:21:32;;;;;;;2.70;1.60;;;12.60;71.20;;;;;;5096365;28;20441;-82
2023/03/28 09:24:27;;;;;;;0.60;0.60;;;11.30;73.70;;;;;;5108354;28;20427;-87
2023/03/28 09:27:01;;;;;;;17.03;1.93;;;11.00;77.40;;;;;;5115492;28;20184;-86
2023/03/28 09:29:31;;;;;;;0.50;0.40;;;11.20;77.00;;;;;;5115271;28;20507;-85
2023/03/28 09:32:03;;;;;;;0.60;0.60;;;11.50;78.70;;;;;;5100812;28;20439;-85
2023/03/28 09:34:39;;;;;;;0.60;0.50;;;11.70;75.70;;;;;;5103431;28;20499;-86
2023/03/28 09:37:17;;;;;;;0.80;0.80;;;11.60;76.20;;;;;;5102506;28;20437;-86
2023/03/28 09:39:50;;;;;;;0.73;0.73;;;10.80;76.60;;;;;;5094788;28;20868;-85
2023/03/28 09:42:30;;;;;;;0.50;0.50;;;10.20;79.20;;;;;;5102310;28;20285;-83
2023/03/28 09:45:03;;;;;;;0.50;0.40;;;10.00;88.00;;;;;;5102858;28;20193;-83
2023/03/28 09:47:30;;;;;;;1.67;0.63;;;9.80;85.50;;;;;;5102005;28;20193;-85
2023/03/28 09:49:58;;;;;;;0.88;0.88;;;9.20;85.90;;;;;;5094248;28;20204;-84
2023/03/28 09:52:25;;;;;;;0.50;0.40;;;9.30;87.40;;;;;;5101669;28;20283;-83
2023/03/28 09:54:53;;;;;;;0.60;0.60;;;9.70;84.70;;;;;;5097772;28;20286;-83
2023/03/28 09:57:20;;;;;;;0.50;0.40;;;10.80;85.30;;;;;;5095167;28;20720;-85
2023/03/28 09:59:47;;;;;;;0.50;0.40;;;12.70;80.70;;;;;;5100201;28;20496;-84
2023/03/28 10:02:30;;;;;;;8.70;0.70;;;13.80;75.90;;;;;;5099395;28;20463;-84
2023/03/28 10:04:58;;;;;;;0.50;0.40;;;13.80;69.70;;;;;;5091506;28;20526;-84
2023/03/28 10:07:31;;;;;;;1.63;1.43;;;14.30;70.40;;;;;;5091049;28;20435;-83
2023/03/28 10:10:07;;;;;;;0.50;0.43;;;14.20;67.80;;;;;;5091891;28;20455;-84
2023/03/28 10:12:38;;;;;;;1.83;1.47;;;13.70;67.60;;;;;;5099503;28;20465;-85
2023/03/28 10:15:07;;;;;;;1.07;0.60;;;13.40;66.50;;;;;;5099865;28;20432;-83
2023/03/28 10:17:36;;;;;;;0.50;0.50;;;12.70;65.00;;;;;;5090440;28;20841;-85
2023/03/28 10:20:10;;;;;;;0.50;0.40;;;12.50;66.60;;;;;;5099596;28;20439;-81
2023/03/28 10:22:39;;;;;;;2.90;0.70;;;13.30;67.00;;;;;;5098928;28;20531;-83
2023/03/28 10:25:15;;;;;;;1.27;1.23;;;14.10;65.10;;;;;;5094596;28;20555;-84
2023/03/28 10:27:43;;;;;;;0.50;0.40;;;13.40;62.80;;;;;;5095632;28;20465;-84
2023/03/28 10:30:19;;;;;;;0.50;0.40;;;12.50;64.90;;;;;;5092618;28;20511;-85
2023/03/28 10:33:07;;;;;;;0.50;0.50;;;12.00;66.90;;;;;;5098793;28;20466;-83
2023/03/28 10:35:35;;;;;;;1.27;1.17;;;12.30;68.10;;;;;;5099235;28;20444;-84
2023/03/28 10:38:03;;;;;;;0.70;0.70;;;12.90;67.10;;;;;;5098152;28;20475;-84
2023/03/28 10:40:32;;;;;;;0.50;0.40;;;12.50;67.30;;;;;;5098361;28;20875;-83
2023/03/28 10:42:59;;;;;;;0.50;0.40;;;13.40;65.00;;;;;;5097796;28;20435;-83
2023/03/28 10:45:34;;;;;;;0.50;0.40;;;14.20;63.50;;;;;;5089936;28;20499;-80
2023/03/28 10:48:05;;;;;;;0.50;0.40;;;14.20;60.80;;;;;;5097362;28;20452;-83
2023/03/28 10:50:37;;;;;;;2.73;0.97;;;14.60;61.60;;;;;;5098477;28;20431;-83
2023/03/28 10:53:23;;;;;;;2.40;2.20;;;14.60;59.10;;;;;;5082336;28;20436;-84
2023/03/28 10:56:05;;;;;;;1.43;1.40;;;14.60;58.70;;;;;;5090302;28;20432;-83
2023/03/28 10:58:37;;;;;;;2.10;1.90;;;14.40;57.60;;;;;;5090435;28;20476;-83
2023/03/28 11:01:10;;;;;;;0.60;0.40;;;14.30;58.90;;;;;;5090050;28;21002;-85
2023/03/28 11:03:48;;;;;;;2.90;1.10;;;14.00;58.20;;;;;;5097403;28;20527;-84
2023/03/28 11:06:21;;;;;;;0.50;0.37;;;14.10;58.70;;;;;;5098456;28;20881;-81
2023/03/28 11:09:00;;;;;;;0.50;0.40;;;14.00;57.60;;;;;;5089048;28;20945;-81
2023/03/28 11:11:43;;;;;;;6.80;0.97;;;14.10;57.90;;;;;;5090348;28;20439;-83
2023/03/28 11:14:19;;;;;;;0.90;0.60;;;13.70;57.00;;;;;;5095004;28;20439;-79
2023/03/28 11:16:55;;;;;;;0.50;0.40;;;13.10;56.60;;;;;;5092850;28;20435;-83
2023/03/28 11:19:43;;;;;;;0.60;0.60;;;12.90;58.10;;;;;;5088805;28;20474;-82
2023/03/28 11:22:20;;;;;;;1.27;0.50;;;12.90;58.30;;;;;;5083330;28;20781;-84
2023/03/28 11:24:52;;;;;;;0.60;0.50;;;12.90;57.40;;;;;;5092718;28;20427;-83
2023/03/28 11:27:28;;;;;;;0.50;0.40;;;13.30;58.80;;;;;;5086035;28;20439;-83
2023/03/28 11:30:01;;;;;;;0.50;0.40;;;13.40;58.50;;;;;;5089816;28;20522;-83
2023/03/28 11:32:34;;;;;;;1.00;0.60;;;13.20;58.90;;;;;;5095213;28;20432;-82
2023/03/28 11:35:07;;;;;;;0.50;0.40;;;13.10;57.80;;;;;;5100438;28;20433;-83
2023/03/28 11:37:39;;;;;;;0.50;0.40;;;13.10;58.50;;;;;;5093292;28;20519;-84
2023/03/28 11:40:18;;;;;;;0.80;0.70;;;13.00;57.20;;;;;;5088906;28;20520;-82
2023/03/28 11:42:51;;;;;;;0.60;0.40;;;12.70;56.20;;;;;;5086403;28;20501;-81
2023/03/28 11:45:26;;;;;;;0.60;0.60;;;12.50;56.40;;;;;;5095656;28;20435;-83
2023/03/28 11:48:04;;;;;;;0.87;0.87;;;12.50;56.90;;;;;;5090736;28;20455;-85
2023/03/28 11:50:36;;;;;;;0.50;0.40;;;12.50;56.50;;;;;;5100443;28;20427;-83
2023/03/28 11:53:06;;;;;;;0.50;0.40;;;12.60;57.00;;;;;;5093318;28;20432;-82
2023/03/28 11:55:38;;;;;;;0.50;0.40;;;12.70;57.00;;;;;;5085281;28;20514;-83
2023/03/28 11:58:15;;;;;;;1.00;0.87;;;12.60;57.90;;;;;;5086493;28;20447;-84
2023/03/28 12:00:46;;;;;;;0.50;0.40;;;12.40;57.50;;;;;;5099709;28;20435;-82
2023/03/28 12:03:19;;;;;;;12.33;0.83;;;12.30;59.30;;;;;;5100264;28;20526;-85
2023/03/28 12:05:51;;;;;;;0.50;0.40;;;12.70;58.70;;;;;;5099349;28;20560;-81
2023/03/28 12:08:24;;;;;;;0.50;0.50;;;12.70;59.50;;;;;;5096847;28;20456;-80
2023/03/28 12:10:57;;;;;;;0.50;0.40;;;12.40;58.50;;;;;;5099291;28;20431;-84
2023/03/28 12:13:32;;;;;;;0.60;0.57;;;12.30;59.50;;;;;;5098053;28;20458;-81
2023/03/28 12:16:02;;;;;;;0.50;0.40;;;12.20;58.80;;;;;;5085136;28;20459;-81
2023/03/28 12:18:34;;;;;;;0.50;0.40;;;12.20;58.40;;;;;;5093856;28;20489;-81
2023/03/28 12:21:07;;;;;;;0.70;0.70;;;12.00;58.50;;;;;;5094879;28;20423;-83
2023/03/28 12:23:39;;;;;;;0.60;0.50;;;11.40;57.50;;;;;;5089107;28;20476;-80
2023/03/28 12:26:22;;;;;;;0.67;0.50;;;11.20;57.90;;;;;;5088914;28;20432;-82
2023/03/28 12:28:53;;;;;;;1.60;0.60;;;10.90;58.50;;;;;;5092555;28;20454;-84
2023/03/28 12:31:25;;;;;;;0.60;0.57;;;10.80;59.50;;;;;;5104967;28;20491;-86
2023/03/28 12:33:59;;;;;;;0.60;0.60;;;10.50;59.20;;;;;;5105108;28;20903;-84
2023/03/28 12:36:33;;;;;;;0.50;0.50;;;10.30;59.30;;;;;;5100464;28;20459;-82
2023/03/28 12:39:04;;;;;;;5.75;0.82;;;10.30;60.70;;;;;;5095183;28;20217;-83
2023/03/28 12:41:36;;;;;;;0.60;0.50;;;10.20;60.20;;;;;;5098246;28;20279;-82
2023/03/28 12:44:08;;;;;;;1.45;1.00;;;10.30;60.90;;;;;;5091784;28;20196;-85
2023/03/28 12:46:44;;;;;;;0.50;0.40;;;10.70;61.70;;;;;;5107040;28;20200;-83
2023/03/28 12:49:17;;;;;;;0.70;0.57;;;11.40;62.20;;;;;;5099984;28;20453;-86
2023/03/28 12:51:48;;;;;;;3.03;0.60;;;12.10;61.00;;;;;;5107211;28;20470;-84
2023/03/28 12:54:24;;;;;;;0.50;0.40;;;12.90;59.10;;;;;;5104790;28;20431;-85
2023/03/28 12:57:11;;;;;;;0.50;0.40;;;12.80;56.90;;;;;;5106008;28;20435;-85
2023/03/28 12:59:52;;;;;;;0.90;0.60;;;12.70;57.10;;;;;;5106727;28;20481;-83
2023/03/28 13:02:28;;;;;;;4.00;0.70;;;12.40;56.70;;;;;;5100310;28;20485;-86
2023/03/28 13:05:04;;;;;;;0.50;0.40;;;12.20;56.60;;;;;;5105119;28;20960;-84
2023/03/28 13:07:47;;;;;;;0.50;0.40;;;12.00;56.30;;;;;;5104491;28;20858;-85
2023/03/28 13:10:23;;;;;;;0.50;0.40;;;11.80;56.60;;;;;;5105745;28;20511;-83
2023/03/28 13:13:01;;;;;;;0.50;0.40;;;12.10;57.60;;;;;;5088588;28;20550;-81